New Braintree, Massachusetts
Current Conditions -  °F | °C
As of 12:54 AM on Wednesday 26 Nov 2014 (Local Time) from KORH Reporting Station
Clear Clear  
Wind Chill: 36°   Ceiling: Unl
Heat Index: 40°   Visibility: 10mi
Dew Point: 28°   Wind: 6mph
Humidity: 63%   Direction: 220°SW
Pressure: 30.12"   Gusts: NA
Location:  42.3°N, 72.21°W
Report Text: KORH 260554Z AUTO 22005KT 10SM CLR 04/M02 A3012 RMK AO2 SLP204 T00441022 10067 20039 51018
Loading
Personal Weather Stations






























Interactive Weather Map New forecast layout! Learn more

10-Day Weather Forecast

Advertisements
Track Severe Weather on mobile